createdAt,value
2018-03-03T00:01:55.212Z,188.12
2018-03-03T00:04:23.447Z,205.50
2018-03-03T00:06:50.923Z,182.35
2018-03-03T00:09:18.431Z,189.73
2018-03-03T00:11:45.900Z,194.30
2018-03-03T00:14:13.403Z,198.15
2018-03-03T00:16:41.653Z,196.73
2018-03-03T00:19:09.158Z,184.60
2018-03-03T00:21:36.643Z,206.18
2018-03-03T00:24:04.130Z,190.73
2018-03-03T00:26:31.651Z,195.35
2018-03-03T00:28:59.132Z,180.60
2018-03-03T00:31:26.639Z,193.52
2018-03-03T00:33:54.912Z,161.95
2018-03-03T00:36:23.194Z,182.00
2018-03-03T00:38:51.460Z,196.90
2018-03-03T00:41:18.948Z,201.30
2018-03-03T00:43:46.467Z,202.57
2018-03-03T00:46:13.945Z,194.10
2018-03-03T00:48:42.223Z,188.02
2018-03-03T00:51:10.497Z,189.85
2018-03-03T00:53:38.726Z,195.38
2018-03-03T00:56:06.232Z,199.00
2018-03-03T00:58:34.482Z,200.77
2018-03-03T01:01:02.028Z,184.52
2018-03-03T01:03:29.499Z,195.43
2018-03-03T01:05:57.002Z,206.50
2018-03-03T01:08:24.482Z,204.68
2018-03-03T01:10:51.998Z,192.68
2018-03-03T01:13:19.485Z,196.27
2018-03-03T01:15:47.001Z,204.68
2018-03-03T01:18:14.491Z,201.93
2018-03-03T01:20:42.755Z,195.25
2018-03-03T01:23:11.019Z,195.50
2018-03-03T01:25:38.519Z,187.25
2018-03-03T01:28:06.016Z,200.07
2018-03-03T01:30:33.506Z,197.57
2018-03-03T01:33:01.775Z,192.85
2018-03-03T01:35:29.286Z,194.52
2018-03-03T01:37:56.779Z,202.48
2018-03-03T01:40:24.255Z,210.75
2018-03-03T01:42:51.769Z,206.13
2018-03-03T01:45:19.270Z,207.93
2018-03-03T01:47:46.751Z,198.73
2018-03-03T01:50:15.159Z,225.98
2018-03-03T01:52:42.642Z,220.45
2018-03-03T01:55:10.151Z,218.75
2018-03-03T01:57:37.633Z,219.77
2018-03-03T02:00:05.142Z,227.98
2018-03-03T02:02:32.612Z,221.68
2018-03-03T02:05:00.890Z,234.32
2018-03-03T02:07:29.152Z,232.18
2018-03-03T02:09:56.680Z,209.45
2018-03-03T02:12:24.146Z,223.38
2018-03-03T02:14:51.623Z,215.35
2018-03-03T02:17:19.141Z,227.38
2018-03-03T02:19:46.604Z,239.23
2018-03-03T02:22:14.115Z,217.75
2018-03-03T02:24:41.918Z,240.52
2018-03-03T02:27:09.417Z,215.57
2018-03-03T02:29:36.920Z,210.70
2018-03-03T02:32:05.182Z,208.73
2018-03-03T02:34:33.429Z,230.73
2018-03-03T02:37:00.978Z,220.95
2018-03-03T02:39:28.492Z,213.80
2018-03-03T02:41:56.746Z,235.98
2018-03-03T02:44:24.247Z,234.45
2018-03-03T02:46:51.724Z,220.73
2018-03-03T02:49:19.223Z,240.68
2018-03-03T02:51:47.463Z,219.70
2018-03-03T02:54:14.968Z,272.17
2018-03-03T02:56:43.209Z,239.98
2018-03-03T02:59:10.681Z,232.43
2018-03-03T03:01:38.179Z,226.07
2018-03-03T03:04:05.690Z,228.65
2018-03-03T03:06:33.193Z,236.32
2018-03-03T03:09:00.689Z,220.05
2018-03-03T03:11:28.211Z,234.43
2018-03-03T03:13:55.715Z,236.25
2018-03-03T03:16:23.189Z,219.68
2018-03-03T03:18:50.691Z,213.90
2018-03-03T03:21:18.259Z,214.00
2018-03-03T03:23:45.764Z,243.55
2018-03-03T03:26:14.103Z,228.88
2018-03-03T03:28:41.628Z,244.18
2018-03-03T03:31:09.873Z,240.95
2018-03-03T03:33:37.499Z,255.45
2018-03-03T03:36:04.970Z,288.73
2018-03-03T03:38:32.468Z,245.15
2018-03-03T03:40:59.961Z,265.30
2018-03-03T03:43:27.440Z,217.52
2018-03-03T03:45:54.959Z,238.07
2018-03-03T03:48:23.209Z,234.85
2018-03-03T03:50:50.707Z,230.48
2018-03-03T03:53:18.210Z,224.88
2018-03-03T03:55:45.709Z,213.23
2018-03-03T03:58:13.959Z,400.35
2018-03-03T04:00:41.459Z,222.80
2018-03-03T04:03:08.949Z,336.67
2018-03-03T04:05:36.419Z,407.83
2018-03-03T04:08:03.940Z,326.00
2018-03-03T04:10:31.419Z,223.35
2018-03-03T04:12:58.904Z,216.50
2018-03-03T04:15:26.374Z,236.85
2018-03-03T04:17:53.884Z,221.48
2018-03-03T04:20:21.391Z,272.20
2018-03-03T04:22:48.930Z,225.52
2018-03-03T04:25:16.403Z,206.30
2018-03-03T04:27:43.914Z,224.23
2018-03-03T04:30:11.396Z,203.30
2018-03-03T04:32:38.874Z,208.93
2018-03-03T04:35:06.437Z,200.85
2018-03-03T04:37:33.866Z,206.27
2018-03-03T04:40:01.373Z,211.00
2018-03-03T04:42:28.846Z,182.35
2018-03-03T04:44:57.121Z,179.90
2018-03-03T04:47:25.354Z,192.85
2018-03-03T04:49:52.858Z,192.95
2018-03-03T04:52:21.131Z,180.02
2018-03-03T04:54:49.379Z,190.62
2018-03-03T04:57:16.906Z,200.07
2018-03-03T05:02:55.756Z,195.93
2018-03-03T05:05:31.758Z,206.32
2018-03-03T05:08:01.222Z,177.68
2018-03-03T05:10:28.698Z,167.35
2018-03-03T05:12:58.851Z,174.73
2018-03-03T05:15:29.295Z,156.85
2018-03-03T05:18:18.504Z,183.85
2018-03-03T05:20:51.639Z,159.70
2018-03-03T05:26:28.820Z,163.18
2018-03-03T05:29:02.077Z,205.48
2018-03-03T05:31:30.473Z,213.32
2018-03-03T05:37:26.396Z,179.95
2018-03-03T05:40:00.694Z,225.50
2018-03-03T05:45:44.313Z,183.85
2018-03-03T05:48:26.782Z,188.45
2018-03-03T05:50:54.282Z,190.52
2018-03-03T05:53:27.374Z,171.48
2018-03-03T05:55:58.570Z,185.48
2018-03-03T05:58:34.339Z,201.82
2018-03-03T06:01:07.483Z,165.15
2018-03-03T06:03:40.780Z,154.05
2018-03-03T06:06:13.995Z,164.23
2018-03-03T06:08:42.762Z,154.18
2018-03-03T06:11:10.255Z,149.18
2018-03-03T06:13:37.754Z,153.87
2018-03-03T06:16:05.263Z,182.10
2018-03-03T06:18:33.521Z,183.20
2018-03-03T06:21:01.029Z,149.57
2018-03-03T06:23:28.581Z,161.20
2018-03-03T06:25:56.057Z,172.85
2018-03-03T06:28:23.526Z,153.07
2018-03-03T06:30:51.070Z,169.80
2018-03-03T06:33:18.560Z,177.48
2018-03-03T06:35:46.071Z,193.52
2018-03-03T06:38:13.566Z,183.40
2018-03-03T06:40:41.064Z,187.57
2018-03-03T06:43:09.302Z,174.40
2018-03-03T06:45:36.819Z,193.77
2018-03-03T06:48:04.290Z,179.48
2018-03-03T06:50:31.802Z,175.38
2018-03-03T06:52:59.309Z,177.05
2018-03-03T06:55:26.813Z,200.48
2018-03-03T06:57:54.306Z,172.68
2018-03-03T07:00:21.783Z,187.43
2018-03-03T07:02:49.295Z,209.32
2018-03-03T07:05:17.546Z,187.98
2018-03-03T07:07:45.062Z,169.77
2018-03-03T07:10:13.325Z,182.60
2018-03-03T07:12:41.692Z,170.57
2018-03-03T07:15:24.170Z,174.02
2018-03-03T07:17:51.698Z,187.50
2018-03-03T07:20:19.217Z,176.25
2018-03-03T07:22:47.482Z,163.87
2018-03-03T07:25:15.011Z,164.13
2018-03-03T07:27:42.525Z,188.48
2018-03-03T07:30:10.773Z,131.93
2018-03-03T07:32:38.317Z,154.75
2018-03-03T07:35:05.806Z,169.27
2018-03-03T07:37:33.328Z,135.47
2018-03-03T07:40:00.802Z,136.50
2018-03-03T07:42:28.321Z,143.80
2018-03-03T07:44:55.850Z,147.87
2018-03-03T07:47:24.103Z,149.90
2018-03-03T07:49:51.635Z,150.75
2018-03-03T07:52:19.107Z,148.95
2018-03-03T07:54:46.637Z,154.07
2018-03-03T07:57:14.108Z,152.75
2018-03-03T07:59:41.650Z,154.63
2018-03-03T08:02:09.132Z,168.25
2018-03-03T08:04:36.662Z,144.80
2018-03-03T08:07:04.129Z,155.65
2018-03-03T08:09:31.634Z,143.00
2018-03-03T08:11:59.132Z,150.87
2018-03-03T08:14:26.632Z,149.52
2018-03-03T08:16:54.141Z,140.05
2018-03-03T08:19:22.378Z,150.30
2018-03-03T08:21:49.898Z,140.93
2018-03-03T08:24:17.394Z,156.02
2018-03-03T08:26:44.946Z,145.50
2018-03-03T08:29:12.455Z,126.60
2018-03-03T08:31:40.715Z,152.07
2018-03-03T08:34:08.223Z,164.95
2018-03-03T08:36:35.717Z,139.37
2018-03-03T08:39:03.227Z,121.28
2018-03-03T08:41:30.713Z,129.35
2018-03-03T08:43:58.238Z,140.23
2018-03-03T08:46:25.793Z,139.45
2018-03-03T08:48:53.308Z,148.98
2018-03-03T08:51:20.809Z,145.68
2018-03-03T08:53:49.075Z,142.93
2018-03-03T08:56:17.350Z,140.12
2018-03-03T08:58:45.596Z,137.85
2018-03-03T09:01:13.091Z,139.50
2018-03-03T09:03:41.345Z,144.60
2018-03-03T09:06:08.871Z,138.75
2018-03-03T09:08:36.370Z,132.25
2018-03-03T09:11:03.873Z,141.45
2018-03-03T09:13:31.366Z,125.75
2018-03-03T09:15:58.862Z,136.37
2018-03-03T09:18:27.159Z,123.40
2018-03-03T09:20:54.662Z,130.48
2018-03-03T09:23:22.196Z,127.97
2018-03-03T09:25:49.677Z,135.45
2018-03-03T09:28:17.222Z,139.93
2018-03-03T09:30:44.735Z,144.60
2018-03-03T09:33:12.998Z,138.82
2018-03-03T09:35:40.526Z,145.27
2018-03-03T09:38:08.036Z,129.38
2018-03-03T09:40:36.288Z,134.63
2018-03-03T09:43:03.781Z,128.23
2018-03-03T09:45:32.046Z,126.62
2018-03-03T09:48:00.360Z,121.25
2018-03-03T09:50:27.871Z,132.75
2018-03-03T09:52:55.423Z,116.95
2018-03-03T09:55:22.913Z,111.82
2018-03-03T09:57:50.436Z,130.43
2018-03-03T10:00:17.941Z,123.18
2018-03-03T10:02:45.443Z,117.62
2018-03-03T10:05:12.934Z,116.47
2018-03-03T10:07:41.239Z,117.45
2018-03-03T10:10:08.722Z,111.85
2018-03-03T10:12:36.208Z,116.45
2018-03-03T10:15:03.733Z,121.68
2018-03-03T10:17:31.282Z,121.28
2018-03-03T10:19:58.779Z,100.00
2018-03-03T10:22:26.254Z,106.87
2018-03-03T10:24:53.810Z,127.60
2018-03-03T10:27:21.338Z,123.70
2018-03-03T10:29:48.819Z,117.45
2018-03-03T10:32:16.290Z,126.07
2018-03-03T10:34:43.798Z,124.95
2018-03-03T10:37:11.310Z,126.55
2018-03-03T10:39:39.579Z,116.68
2018-03-03T10:42:08.574Z,111.80
2018-03-03T10:44:36.064Z,114.53
2018-03-03T10:47:03.534Z,112.00
2018-03-03T10:49:31.035Z,126.50
2018-03-03T10:51:58.534Z,127.65
2018-03-03T10:54:26.782Z,118.95
2018-03-03T10:56:54.285Z,97.82
2018-03-03T10:59:21.762Z,109.68
2018-03-03T11:01:49.282Z,117.80
2018-03-03T11:04:17.517Z,95.62
2018-03-03T11:06:45.047Z,101.03
2018-03-03T11:09:12.557Z,100.45
2018-03-03T11:11:40.024Z,106.53
2018-03-03T11:14:08.286Z,85.65
2018-03-03T11:16:35.761Z,99.90
2018-03-03T11:19:04.050Z,90.07
2018-03-03T11:21:32.274Z,91.57
2018-03-03T11:23:59.788Z,90.22
2018-03-03T11:26:28.051Z,82.95
2018-03-03T11:28:56.323Z,90.85
2018-03-03T11:31:23.791Z,84.43
2018-03-03T11:33:52.054Z,86.07
2018-03-03T11:36:19.795Z,82.88
2018-03-03T11:38:47.312Z,71.87
2018-03-03T11:41:14.781Z,72.00
2018-03-03T11:43:42.243Z,71.72
2018-03-03T11:46:09.754Z,75.37
2018-03-03T11:48:37.228Z,73.05
2018-03-03T11:51:05.509Z,69.17
2018-03-03T11:53:33.743Z,65.60
2018-03-03T11:56:01.264Z,70.03
2018-03-03T11:58:28.789Z,62.35
2018-03-03T12:00:57.091Z,68.95
2018-03-03T12:03:24.582Z,64.70
2018-03-03T12:05:52.102Z,74.07
2018-03-03T12:08:20.362Z,71.10
2018-03-03T12:10:48.659Z,60.60
2018-03-03T12:13:16.153Z,71.40
2018-03-03T12:15:43.639Z,68.70
2018-03-03T12:18:11.165Z,71.40
2018-03-03T12:20:38.640Z,69.50
2018-03-03T12:23:06.136Z,74.35
2018-03-03T12:25:34.380Z,70.15
2018-03-03T12:28:01.939Z,67.30
2018-03-03T12:30:29.424Z,76.00
2018-03-03T12:32:56.935Z,59.63
2018-03-03T12:35:24.441Z,72.12
2018-03-03T12:37:51.944Z,64.18
2018-03-03T12:40:19.452Z,65.78
2018-03-03T12:42:46.923Z,67.20
2018-03-03T12:45:15.155Z,60.47
2018-03-03T12:47:42.642Z,53.80
2018-03-03T12:50:10.136Z,66.53
2018-03-03T12:52:37.654Z,65.20
2018-03-03T12:55:05.135Z,50.40
2018-03-03T12:57:33.371Z,54.25
2018-03-03T13:00:00.898Z,60.85
2018-03-03T13:02:28.350Z,54.33
2018-03-03T13:04:55.858Z,50.83
2018-03-03T13:07:23.355Z,56.65
2018-03-03T13:09:51.632Z,55.00
2018-03-03T13:12:19.931Z,49.20
2018-03-03T13:14:47.398Z,49.33
2018-03-03T13:17:14.881Z,56.78
2018-03-03T13:19:42.382Z,55.33
2018-03-03T13:22:10.697Z,57.20
2018-03-03T13:24:38.908Z,63.35
2018-03-03T13:27:06.416Z,65.65
2018-03-03T13:29:33.905Z,60.67
2018-03-03T15:03:01.190Z,58.40
2018-03-03T15:05:28.749Z,65.68
2018-03-03T15:07:56.415Z,67.43
2018-03-03T15:10:23.919Z,68.60
2018-03-03T15:12:52.171Z,60.45
2018-03-03T15:15:19.675Z,76.43
2018-03-03T15:17:47.183Z,63.70
2018-03-03T15:20:14.709Z,71.35
2018-03-03T15:22:42.174Z,75.47
2018-03-03T15:25:09.674Z,68.55
2018-03-03T15:27:37.182Z,67.50
2018-03-03T15:30:04.675Z,73.93
2018-03-03T15:32:32.183Z,62.42
2018-03-03T15:34:59.703Z,68.43
2018-03-03T15:37:27.218Z,75.20
2018-03-03T15:39:54.731Z,76.18
2018-03-03T15:42:22.212Z,88.70
2018-03-03T15:44:50.541Z,66.37
2018-03-03T15:47:18.006Z,74.20
2018-03-03T15:49:45.492Z,80.55
2018-03-03T15:52:13.777Z,88.10
2018-03-03T15:54:42.045Z,98.28
2018-03-03T15:57:10.279Z,88.78
2018-03-03T15:59:37.779Z,83.43
2018-03-03T16:02:06.052Z,98.40
2018-03-03T16:04:33.528Z,100.38
2018-03-03T16:07:01.818Z,93.00
2018-03-03T16:09:30.076Z,92.32
2018-03-03T16:11:58.369Z,90.43
2018-03-03T16:14:26.603Z,95.15
2018-03-03T16:16:54.150Z,103.32
2018-03-03T16:19:21.629Z,98.05
2018-03-03T16:21:49.160Z,95.40
2018-03-03T16:24:16.690Z,111.68
2018-03-03T16:26:44.922Z,94.47
2018-03-03T16:29:13.251Z,98.03
2018-03-03T16:31:40.753Z,109.35
2018-03-03T16:34:08.263Z,118.00
2018-03-03T16:36:35.764Z,133.27
2018-03-03T16:39:03.270Z,115.50
2018-03-03T16:41:31.528Z,109.93
2018-03-03T16:43:59.076Z,121.40
2018-03-03T16:46:26.562Z,121.80
2018-03-03T16:48:54.149Z,114.55
2018-03-03T16:51:21.614Z,112.28
2018-03-03T16:53:49.161Z,112.53
2018-03-03T16:56:16.695Z,104.85
2018-03-03T16:58:44.982Z,107.43
2018-03-03T17:01:12.482Z,125.32
2018-03-03T17:03:39.944Z,113.85
2018-03-03T17:06:07.431Z,128.12
2018-03-03T17:08:35.889Z,129.75
2018-03-03T17:11:03.754Z,127.40
2018-03-03T17:13:31.264Z,116.60
2018-03-03T17:15:59.546Z,133.37
2018-03-03T17:18:27.047Z,116.00
2018-03-03T17:20:54.627Z,127.00
2018-03-03T17:23:22.088Z,141.00
2018-03-03T17:25:49.551Z,141.45
2018-03-03T17:28:17.079Z,127.38
2018-03-03T17:30:44.571Z,135.52
2018-03-03T17:33:12.852Z,121.65
2018-03-03T17:35:41.119Z,135.95
2018-03-03T17:38:08.624Z,128.43
2018-03-03T17:40:36.115Z,124.65
2018-03-03T17:43:03.628Z,129.20
2018-03-03T17:45:31.877Z,143.95
2018-03-03T17:47:59.375Z,136.48
2018-03-03T17:50:26.883Z,128.30
2018-03-03T17:52:54.401Z,111.25
2018-03-03T17:55:21.920Z,124.20
2018-03-03T17:57:49.423Z,120.93
2018-03-03T18:00:16.922Z,116.47
2018-03-03T18:02:44.387Z,129.18
2018-03-03T18:05:11.919Z,112.15
2018-03-03T18:07:39.411Z,115.15
2018-03-03T18:10:06.940Z,99.62
2018-03-03T18:12:34.434Z,114.10
2018-03-03T18:15:01.959Z,119.53
2018-03-03T18:17:29.458Z,118.62
2018-03-03T18:19:57.693Z,107.10
2018-03-03T18:22:25.205Z,131.68
2018-03-03T18:24:52.672Z,108.93
2018-03-03T18:27:20.214Z,109.60
2018-03-03T18:29:48.462Z,115.82
2018-03-03T18:32:15.975Z,118.28
2018-03-03T18:34:43.467Z,118.97
2018-03-03T18:37:10.963Z,124.47
2018-03-03T18:39:39.282Z,127.03
2018-03-03T18:42:06.764Z,133.00
2018-03-03T18:44:35.046Z,118.45
2018-03-03T18:47:02.538Z,115.62
2018-03-03T18:49:30.813Z,120.20
2018-03-03T18:51:59.126Z,120.45
2018-03-03T18:54:26.639Z,122.68
2018-03-03T18:56:54.158Z,126.87
2018-03-03T18:59:21.735Z,122.87
2018-03-03T19:01:49.243Z,121.20
2018-03-03T19:04:16.762Z,125.50
2018-03-03T19:06:44.291Z,122.10
2018-03-03T19:09:11.773Z,114.72
2018-03-03T19:11:39.294Z,116.57
2018-03-03T19:14:06.794Z,121.70
2018-03-03T19:16:34.291Z,120.30
2018-03-03T19:19:02.528Z,125.30
2018-03-03T19:21:30.075Z,126.90
2018-03-03T19:23:57.562Z,129.18
2018-03-03T19:26:25.064Z,144.40
2018-03-03T19:28:52.595Z,127.78
2018-03-03T19:31:20.846Z,134.02
2018-03-03T19:33:48.373Z,122.37
2018-03-03T19:36:15.895Z,132.85
2018-03-03T19:38:44.151Z,131.60
2018-03-03T19:41:11.672Z,129.07
2018-03-03T19:43:39.190Z,138.88
2018-03-03T19:46:07.452Z,138.70
2018-03-03T19:48:34.960Z,132.63
2018-03-03T19:51:02.480Z,145.30
2018-03-03T19:53:30.745Z,153.45
2018-03-03T19:55:59.020Z,150.73
2018-03-03T19:58:26.542Z,163.73
2018-03-03T20:00:54.040Z,148.40
2018-03-03T20:03:21.648Z,150.75
2018-03-03T20:05:49.099Z,156.60
2018-03-03T20:08:16.625Z,159.63
2018-03-03T20:10:44.138Z,148.40
2018-03-03T20:13:11.639Z,155.55
2018-03-03T20:15:39.145Z,146.57
2018-03-03T20:18:06.660Z,147.82
2018-03-03T20:20:34.185Z,152.85
2018-03-03T20:23:01.703Z,168.98
2018-03-03T20:25:29.237Z,152.10
2018-03-03T20:27:56.720Z,152.98
2018-03-03T20:30:24.286Z,157.75
2018-03-03T20:32:52.543Z,152.95
2018-03-03T20:35:20.853Z,156.32
2018-03-03T20:37:48.382Z,162.55
2018-03-03T20:40:16.616Z,162.90
2018-03-03T20:42:44.099Z,150.98
2018-03-03T20:45:11.633Z,169.27
2018-03-03T20:47:39.131Z,157.23
2018-03-03T20:50:07.405Z,167.32
2018-03-03T20:52:35.659Z,175.18
2018-03-03T20:55:03.206Z,186.20
2018-03-03T20:57:30.719Z,194.68
2018-03-03T20:59:59.025Z,178.30
2018-03-03T21:02:26.555Z,184.87
2018-03-03T21:04:54.843Z,180.02
2018-03-03T21:07:22.315Z,185.02
2018-03-03T21:09:49.802Z,172.55
2018-03-03T21:12:33.140Z,195.40
2018-03-03T21:15:00.649Z,191.45
2018-03-03T21:17:28.171Z,203.37
2018-03-03T21:19:55.671Z,187.25
2018-03-03T21:22:23.196Z,197.20
2018-03-03T21:24:51.456Z,192.48
2018-03-03T21:27:18.994Z,213.30
2018-03-03T21:29:46.499Z,185.77
2018-03-03T21:32:14.791Z,206.65
2018-03-03T21:34:43.048Z,204.05
2018-03-03T21:37:11.332Z,207.30
2018-03-03T21:39:39.592Z,211.10
2018-03-03T21:42:07.099Z,195.80
2018-03-03T21:44:34.600Z,209.98
2018-03-03T21:47:02.100Z,194.18
2018-03-03T21:49:29.611Z,206.85
2018-03-03T21:51:57.118Z,195.48
2018-03-03T21:54:25.384Z,194.87
2018-03-03T21:56:53.652Z,186.40
2018-03-03T21:59:21.940Z,192.20
2018-03-03T22:01:50.203Z,184.20
2018-03-03T22:04:18.479Z,196.43
2018-03-03T22:06:45.987Z,186.10
2018-03-03T22:09:13.476Z,209.15
2018-03-03T22:11:40.979Z,210.55
2018-03-03T22:14:08.487Z,220.37
2018-03-03T22:16:36.009Z,182.18
2018-03-03T22:19:03.486Z,204.20
2018-03-03T22:21:31.032Z,198.48
2018-03-03T22:23:59.289Z,220.05
2018-03-03T22:26:27.571Z,211.82
2018-03-03T22:28:55.815Z,207.65
2018-03-03T22:31:23.341Z,201.37
2018-03-03T22:33:50.862Z,208.15
2018-03-03T22:36:19.111Z,216.48
2018-03-03T22:38:48.120Z,196.85
2018-03-03T22:41:16.375Z,232.20
2018-03-03T22:43:43.871Z,205.77
2018-03-03T22:46:11.354Z,234.95
2018-03-03T22:48:38.891Z,218.98
2018-03-03T22:51:06.393Z,214.70
2018-03-03T22:53:33.885Z,213.73
2018-03-03T22:56:01.417Z,228.75
2018-03-03T22:58:28.900Z,227.38
2018-03-03T23:00:56.413Z,216.23
2018-03-03T23:03:23.915Z,234.20
2018-03-03T23:05:51.476Z,226.07
2018-03-03T23:08:18.939Z,232.60
2018-03-03T23:10:47.187Z,217.87
2018-03-03T23:13:14.728Z,227.55
2018-03-03T23:15:42.244Z,215.62
2018-03-03T23:18:10.507Z,222.95
2018-03-03T23:20:38.053Z,222.88
2018-03-03T23:23:05.523Z,216.73
2018-03-03T23:25:33.043Z,201.20
2018-03-03T23:28:00.565Z,227.35
2018-03-03T23:30:28.840Z,228.07
2018-03-03T23:32:57.083Z,224.80
2018-03-03T23:35:24.611Z,239.12
2018-03-03T23:37:52.107Z,228.18
2018-03-03T23:40:19.645Z,214.30
2018-03-03T23:42:47.120Z,230.05
2018-03-03T23:45:14.644Z,249.32
2018-03-03T23:47:42.126Z,236.52
2018-03-03T23:50:09.651Z,224.15
2018-03-03T23:52:37.115Z,234.62
2018-03-03T23:55:04.637Z,243.73
2018-03-03T23:57:32.871Z,238.75
